Time;durP1;ratioP1;P1;durP2;ratioP2;P2;SDS_P1;SDS_P2;PMS_P1;PMS_P2;Temp;Humidity;BMP_temperature;BMP_pressure;BME280_temperature;BME280_humidity;BME280_pressure;Samples;Min_cycle;Max_cycle;Signal;HPM_P1;HPM_P2
2022/04/23 00:00:54;;;;;;;27.43;16.40;;;;;;;9.41;84.87;99286.63;5430694;32;34012;-65
2022/04/23 00:03:57;;;;;;;27.93;17.63;;;;;;;10.02;83.91;99283.34;5409446;32;36014;-65
2022/04/23 00:06:59;;;;;;;25.20;16.40;;;;;;;9.83;84.50;99287.06;5431915;32;36002;-65
2022/04/23 00:10:02;;;;;;;26.60;15.97;;;;;;;9.81;83.44;99275.78;5414274;32;34183;-65
2022/04/23 00:13:05;;;;;;;26.33;16.20;;;;;;;10.18;82.92;99275.50;5417557;32;34435;-79
2022/04/23 00:16:07;;;;;;;24.77;16.75;;;;;;;10.08;83.32;99278.69;5427952;32;44512;-79
2022/04/23 00:19:10;;;;;;;24.33;16.20;;;;;;;10.36;81.48;99278.91;5414019;32;34975;-64
2022/04/23 00:22:13;;;;;;;22.83;15.73;;;;;;;10.33;81.55;99280.88;5430479;32;34351;-65
2022/04/23 00:25:15;;;;;;;27.85;16.37;;;;;;;10.19;79.87;99287.69;5413926;32;35787;-66
2022/04/23 00:28:18;;;;;;;25.70;15.40;;;;;;;10.16;81.01;99274.72;5422952;32;35215;-79
2022/04/23 00:31:20;;;;;;;22.77;16.23;;;;;;;10.50;80.90;99281.62;5414762;32;34113;-65
2022/04/23 00:34:22;;;;;;;25.10;16.23;;;;;;;10.04;82.24;99285.88;5416424;32;34745;-65
2022/04/23 00:37:24;;;;;;;26.53;16.10;;;;;;;10.64;82.33;99287.88;5429619;32;33631;-78
2022/04/23 00:40:27;;;;;;;22.57;15.03;;;;;;;10.48;79.75;99282.63;5417744;32;35306;-65
2022/04/23 00:43:30;;;;;;;22.17;15.47;;;;;;;11.04;77.23;99271.50;5429377;32;34824;-65
2022/04/23 00:46:32;;;;;;;;;;;;;;;10.27;80.87;99282.88;5415268;32;36031;-79
2022/04/23 00:49:34;;;;;;;24.10;16.13;;;;;;;9.80;83.06;99288.06;5412322;32;35978;-65
2022/04/23 00:52:37;;;;;;;23.37;16.20;;;;;;;9.64;83.71;99287.19;5413791;32;46777;-78
2022/04/23 00:55:39;;;;;;;25.47;15.97;;;;;;;10.21;81.83;99280.56;5415513;32;34945;-78
2022/04/23 00:58:42;;;;;;;25.35;15.65;;;;;;;10.52;79.82;99279.75;5416701;32;34313;-77
2022/04/23 01:01:44;;;;;;;22.10;15.43;;;;;;;10.31;80.91;99283.59;5415391;32;34906;-80
2022/04/23 01:04:46;;;;;;;25.13;16.03;;;;;;;10.09;82.14;99285.66;5430643;32;34356;-65
2022/04/23 01:07:49;;;;;;;24.80;16.10;;;;;;;10.11;80.82;99289.03;5415764;32;35789;-66
2022/04/23 01:10:52;;;;;;;23.27;15.27;;;;;;;10.48;80.26;99287.88;5420436;32;34945;-75
2022/04/23 01:13:55;;;;;;;22.70;14.95;;;;;;;10.15;81.60;99287.94;5416401;32;35008;-66
2022/04/23 01:16:57;;;;;;;23.55;14.87;;;;;;;10.21;80.99;99283.19;5415833;32;35769;-78
2022/04/23 01:20:06;;;;;;;22.03;14.07;;;;;;;10.37;79.39;99285.00;5428709;32;35156;-65
2022/04/23 01:23:08;;;;;;;23.80;15.30;;;;;;;10.16;80.84;99290.47;5411502;32;45865;-79
2022/04/23 01:26:11;;;;;;;22.20;14.43;;;;;;;10.19;80.42;99279.81;5426000;32;35896;-65
2022/04/23 01:29:14;;;;;;;22.35;14.87;;;;;;;10.25;80.05;99282.13;5413543;32;34655;-79
2022/04/23 01:32:16;;;;;;;21.33;14.57;;;;;;;10.33;80.36;99283.50;5410750;32;35074;-79
2022/04/23 01:35:18;;;;;;;21.33;14.67;;;;;;;10.03;82.42;99284.19;5421840;32;35329;-79
2022/04/23 01:38:20;;;;;;;23.33;14.50;;;;;;;9.81;82.26;99281.88;5415222;32;35239;-66
2022/04/23 01:41:22;;;;;;;23.43;15.03;;;;;;;9.72;83.88;99279.75;5432003;32;37122;-65
2022/04/23 01:44:24;;;;;;;22.23;14.83;;;;;;;9.45;84.54;99282.03;5414891;32;34465;-79
2022/04/23 01:47:26;;;;;;;21.87;15.03;;;;;;;10.14;81.22;99287.09;5416535;32;35630;-79
2022/04/23 01:50:28;;;;;;;21.30;14.90;;;;;;;9.68;82.86;99278.22;5408755;32;35719;-78
2022/04/23 01:53:31;;;;;;;20.93;13.33;;;;;;;10.02;81.51;99285.97;5422754;32;36584;-79
2022/04/23 01:56:33;;;;;;;22.33;14.37;;;;;;;10.62;78.31;99295.81;5424008;32;34560;-65
2022/04/23 01:59:35;;;;;;;19.90;13.00;;;;;;;10.08;80.53;99289.22;5412407;32;45842;-66
2022/04/23 02:02:37;;;;;;;22.33;14.13;;;;;;;10.10;80.03;99303.09;5418724;32;34830;-64
2022/04/23 02:05:39;;;;;;;21.60;14.13;;;;;;;10.38;79.14;99287.56;5425639;32;34234;-65
2022/04/23 02:08:41;;;;;;;21.83;13.83;;;;;;;10.78;77.32;99294.03;5431065;32;35998;-65
2022/04/23 02:11:44;;;;;;;21.30;13.97;;;;;;;10.33;79.08;99292.22;5415695;32;35035;-65
2022/04/23 02:14:47;;;;;;;20.37;13.83;;;;;;;10.42;79.03;99296.94;5422992;32;35200;-79
2022/04/23 02:17:50;;;;;;;20.13;13.60;;;;;;;10.24;79.15;99301.47;5425072;32;34710;-65
2022/04/23 02:20:53;;;;;;;20.67;13.88;;;;;;;10.85;78.05;99294.53;5417802;32;34213;-79
2022/04/23 02:23:56;;;;;;;21.33;13.27;;;;;;;10.21;78.70;99303.34;5431520;32;35348;-80
2022/04/23 02:26:58;;;;;;;21.45;13.77;;;;;;;10.91;77.52;99294.16;5411220;32;34336;-78
2022/04/23 02:30:00;;;;;;;21.57;13.33;;;;;;;10.74;77.36;99303.00;5432182;32;35933;-79
2022/04/23 02:33:02;;;;;;;19.67;12.47;;;;;;;10.56;78.45;99311.94;5414117;32;35433;-79
2022/04/23 02:36:06;;;;;;;19.47;12.80;;;;;;;10.68;77.81;99300.72;5423000;32;34200;-66
2022/04/23 02:39:08;;;;;;;;;;;;;;;10.81;77.53;99306.97;5425873;32;46657;-64
2022/04/23 02:42:10;;;;;;;19.80;13.33;;;;;;;10.72;77.56;99311.94;5417051;32;34782;-76
2022/04/23 02:45:16;;;;;;;19.60;13.03;;;;;;;11.02;77.55;99307.56;5430338;32;36921;-65
2022/04/23 02:48:18;;;;;;;20.73;13.80;;;;;;;11.04;76.01;99303.03;5392518;32;34634;-78
2022/04/23 02:51:20;;;;;;;20.13;13.97;;;;;;;10.65;78.29;99305.34;5429347;32;35494;-65
2022/04/23 02:54:23;;;;;;;21.00;13.63;;;;;;;10.30;78.80;99298.50;5414727;32;36071;-66
2022/04/23 02:57:25;;;;;;;24.67;14.67;;;;;;;10.42;78.95;99302.19;5419145;32;33933;-78
2022/04/23 03:00:27;;;;;;;22.33;13.70;;;;;;;9.75;82.11;99305.84;5430752;32;33549;-65
2022/04/23 03:03:29;;;;;;;21.63;13.57;;;;;;;10.37;80.74;99306.87;5412916;32;35455;-65
2022/04/23 03:06:33;;;;;;;19.47;13.77;;;;;;;10.29;79.82;99293.31;5433024;32;34987;-65
2022/04/23 03:09:35;;;;;;;21.55;14.27;;;;;;;10.17;81.03;99307.06;5415074;32;46541;-78
2022/04/23 03:12:38;;;;;;;23.77;13.67;;;;;;;10.16;80.28;99310.62;5427381;32;34431;-66
2022/04/23 03:15:42;;;;;;;21.58;13.43;;;;;;;10.62;78.48;99316.84;5418286;32;34987;-76
2022/04/23 03:18:45;;;;;;;20.47;13.53;;;;;;;10.74;79.04;99318.78;5415789;32;35478;-75
2022/04/23 03:21:47;;;;;;;23.13;14.17;;;;;;;10.38;79.72;99318.22;5432632;32;35369;-80
2022/04/23 03:24:49;;;;;;;21.03;14.93;;;;;;;10.38;81.26;99313.81;5417535;32;35023;-64
2022/04/23 03:27:51;;;;;;;20.63;13.63;;;;;;;10.43;79.33;99321.44;5424664;32;35204;-75
2022/04/23 03:30:53;;;;;;;22.13;14.47;;;;;;;10.11;82.43;99320.53;5414964;32;35228;-79
2022/04/23 03:33:55;;;;;;;20.77;13.97;;;;;;;10.21;80.82;99322.59;5427874;32;34692;-73
2022/04/23 03:36:58;;;;;;;19.83;14.13;;;;;;;10.23;80.31;99320.75;5415262;32;33924;-65
2022/04/23 03:40:04;;;;;;;24.87;17.07;;;;;;;10.03;81.77;99324.41;5414878;32;34719;-64
2022/04/23 03:43:06;;;;;;;24.00;14.97;;;;;;;10.34;81.03;99321.94;5428594;32;46970;-65
2022/04/23 03:46:08;;;;;;;21.57;13.40;;;;;;;10.55;80.55;99326.84;5416362;32;35600;-79
2022/04/23 03:49:11;;;;;;;20.90;13.03;;;;;;;11.17;76.94;99323.37;5407188;32;34763;-66
2022/04/23 03:52:13;;;;;;;19.60;12.93;;;;;;;11.60;73.79;99338.31;5401324;32;35547;-65
2022/04/23 03:55:15;;;;;;;22.33;13.50;;;;;;;10.71;77.38;99342.62;5429255;32;34773;-80
2022/04/23 03:58:18;;;;;;;17.87;12.10;;;;;;;10.80;78.71;99349.97;5419202;32;36392;-66
2022/04/23 04:01:20;;;;;;;20.27;12.82;;;;;;;11.40;75.80;99349.19;5417145;32;34498;-81
2022/04/23 04:04:23;;;;;;;20.23;13.83;;;;;;;10.30;79.45;99358.91;5430000;32;35394;-68
2022/04/23 04:07:25;;;;;;;20.17;13.33;;;;;;;10.58;79.59;99352.13;5415960;32;34720;-79
2022/04/23 04:10:27;;;;;;;20.30;13.30;;;;;;;10.64;78.46;99349.16;5443065;32;35164;-66
2022/04/23 04:13:30;;;;;;;21.20;13.43;;;;;;;10.26;80.79;99357.34;5415311;32;34479;-79
2022/04/23 04:16:32;;;;;;;21.03;13.20;;;;;;;10.98;79.29;99355.13;5425835;32;34358;-79
2022/04/23 04:19:34;;;;;;;20.33;13.57;;;;;;;10.82;77.72;99350.75;5407784;32;34651;-75
2022/04/23 04:22:44;;;;;;;19.50;12.83;;;;;;;11.20;76.30;99360.00;5414094;32;44141;-65
2022/04/23 04:25:47;;;;;;;19.77;13.07;;;;;;;11.51;74.69;99356.44;5428554;32;34701;-66
2022/04/23 04:28:49;;;;;;;19.58;12.57;;;;;;;10.00;80.58;99355.25;5413753;32;35027;-75
2022/04/23 04:31:51;;;;;;;17.43;11.87;;;;;;;10.81;77.82;99363.97;5429103;32;35099;-65
2022/04/23 04:34:54;;;;;;;18.00;12.57;;;;;;;10.19;81.53;99366.47;5415008;32;34598;-66
2022/04/23 04:37:56;;;;;;;19.97;12.60;;;;;;;11.05;77.45;99372.25;5419056;32;35318;-78
2022/04/23 04:40:58;;;;;;;18.07;12.13;;;;;;;10.68;79.79;99363.81;5425782;32;34434;-79
2022/04/23 04:44:00;;;;;;;19.43;12.73;;;;;;;10.80;79.03;99368.37;5414324;32;35291;-66
2022/04/23 04:47:04;;;;;;;18.97;11.80;;;;;;;11.43;76.10;99372.66;5417288;32;36543;-78
2022/04/23 04:50:07;;;;;;;18.40;12.07;;;;;;;11.51;74.09;99365.16;5404003;32;44610;-80
2022/04/23 04:53:09;;;;;;;17.63;11.93;;;;;;;11.52;75.68;99376.53;5428126;32;34697;-79
2022/04/23 04:56:11;;;;;;;17.10;11.23;;;;;;;12.01;73.31;99365.75;5416369;32;34375;-75
2022/04/23 04:59:13;;;;;;;18.13;12.37;;;;;;;11.37;74.98;99371.25;5420134;32;35201;-67
2022/04/23 05:02:15;;;;;;;23.50;13.13;;;;;;;11.14;76.94;99369.09;5425307;32;34601;-75
2022/04/23 05:05:18;;;;;;;17.67;12.30;;;;;;;11.06;75.77;99379.19;5417426;32;34825;-75
2022/04/23 05:08:20;;;;;;;20.90;12.97;;;;;;;11.36;76.53;99373.97;5428724;32;34143;-81
2022/04/23 05:11:22;;;;;;;16.73;11.33;;;;;;;11.43;76.02;99375.31;5414319;32;34438;-80
2022/04/23 05:14:24;;;;;;;17.27;11.17;;;;;;;11.89;72.96;99381.34;5432219;32;33903;-64
2022/04/23 05:17:26;;;;;;;19.27;11.67;;;;;;;11.45;73.31;99383.94;5414384;32;35972;-66
2022/04/23 05:20:29;;;;;;;16.33;11.27;;;;;;;12.22;72.56;99382.84;5417968;32;36318;-79
2022/04/23 05:23:31;;;;;;;19.93;11.83;;;;;;;11.53;72.88;99394.03;5405712;32;35000;-81
2022/04/23 05:26:34;;;;;;;17.37;11.27;;;;;;;11.97;72.86;99393.19;5410706;32;35017;-79
2022/04/23 05:29:36;;;;;;;17.37;10.27;;;;;;;11.83;72.94;99397.50;5429280;32;43410;-79
2022/04/23 05:32:38;;;;;;;18.30;11.53;;;;;;;11.75;74.21;99394.44;5410489;32;36396;-81
2022/04/23 05:35:45;;;;;;;19.00;11.30;;;;;;;11.54;75.52;99406.25;5428703;32;35301;-67
2022/04/23 05:38:47;;;;;;;17.70;11.40;;;;;;;12.41;71.55;99399.22;5416929;32;34328;-74
2022/04/23 05:41:49;;;;;;;16.50;11.10;;;;;;;11.42;74.75;99405.19;5414902;32;35141;-75
2022/04/23 05:44:52;;;;;;;20.83;11.10;;;;;;;11.79;73.55;99409.13;5431564;32;34906;-65
2022/04/23 05:47:54;;;;;;;17.17;12.07;;;;;;;11.52;73.94;99408.94;5395882;32;34223;-79
2022/04/23 05:50:56;;;;;;;15.95;10.40;;;;;;;11.05;75.83;99407.28;5420926;32;35239;-79
2022/04/23 05:53:58;;;;;;;17.87;11.33;;;;;;;11.94;73.52;99399.50;5416619;32;34713;-65
2022/04/23 05:57:05;;;;;;;16.27;11.00;;;;;;;12.59;70.40;99399.00;5426947;32;44966;-77
2022/04/23 06:00:10;;;;;;;18.23;10.47;;;;;;;12.39;70.77;99406.37;5416110;32;35490;-65
2022/04/23 06:03:12;;;;;;;14.67;9.90;;;;;;;13.54;66.25;99402.47;5414718;32;34110;-80
2022/04/23 06:06:15;;;;;;;15.47;10.60;;;;;;;13.13;66.61;99409.59;5431274;32;34232;-77
2022/04/23 06:09:17;;;;;;;15.13;10.17;;;;;;;13.04;67.21;99403.12;5414161;32;34184;-79
2022/04/23 06:12:19;;;;;;;15.87;10.00;;;;;;;13.41;65.56;99412.16;5427526;32;34551;-79
2022/04/23 06:15:21;;;;;;;16.80;10.87;;;;;;;12.69;67.95;99421.22;5416242;32;34840;-65
2022/04/23 06:18:23;;;;;;;16.63;11.10;;;;;;;13.10;67.90;99421.22;5426269;32;34465;-78
2022/04/23 06:21:25;;;;;;;15.23;9.93;;;;;;;12.10;70.80;99438.91;5413993;32;35294;-65
2022/04/23 06:24:28;;;;;;;15.77;9.10;;;;;;;12.92;67.78;99425.88;5400125;32;34574;-65
2022/04/23 06:27:30;;;;;;;16.30;10.03;;;;;;;13.13;66.05;99423.63;5425100;32;34698;-67
2022/04/23 06:30:33;;;;;;;15.50;10.00;;;;;;;12.73;67.13;99430.63;5414169;32;34855;-65
2022/04/23 06:33:35;;;;;;;14.00;9.80;;;;;;;12.49;67.84;99440.88;5430228;32;45057;-74
2022/04/23 06:36:38;;;;;;;15.00;9.80;;;;;;;12.83;67.46;99442.28;5411004;32;34327;-80
2022/04/23 06:39:40;;;;;;;;;;;;;;;13.36;67.73;99458.28;5423336;32;36715;-81
2022/04/23 06:42:42;;;;;;;13.67;8.93;;;;;;;13.62;64.51;99454.78;5419807;32;34647;-80
2022/04/23 06:45:44;;;;;;;15.10;10.23;;;;;;;12.66;66.92;99464.44;5415828;32;35216;-67
2022/04/23 06:48:47;;;;;;;14.60;9.17;;;;;;;12.91;67.38;99462.91;5406804;32;34315;-80
2022/04/23 06:51:49;;;;;;;15.17;9.80;;;;;;;12.46;67.37;99464.81;5413202;32;34551;-65
2022/04/23 06:54:54;;;;;;;16.67;10.43;;;;;;;12.18;70.02;99477.03;5431020;32;34216;-65
2022/04/23 06:57:57;;;;;;;14.50;10.17;;;;;;;12.51;69.75;99475.09;5415786;32;35766;-80
2022/04/23 07:00:59;;;;;;;15.07;9.57;;;;;;;12.25;71.22;99481.94;5423637;32;38070;-66
2022/04/23 07:04:01;;;;;;;15.40;9.37;;;;;;;13.24;67.15;99476.59;5426469;32;34584;-65
2022/04/23 07:07:05;;;;;;;13.60;8.50;;;;;;;13.44;64.85;99474.44;5420304;32;34681;-66
2022/04/23 07:10:08;;;;;;;13.83;8.93;;;;;;;13.87;63.29;99474.28;5430958;32;44493;-80
2022/04/23 07:13:11;;;;;;;13.07;8.63;;;;;;;14.22;62.00;99463.94;5415147;32;34758;-80
2022/04/23 07:16:16;;;;;;;14.17;8.53;;;;;;;14.33;60.42;99471.97;5430211;32;34498;-78
2022/04/23 07:19:18;;;;;;;15.50;8.93;;;;;;;13.75;63.14;99483.84;5414815;32;34608;-81
2022/04/23 07:22:21;;;;;;;15.57;8.70;;;;;;;14.19;61.77;99486.16;5392071;32;35221;-75
2022/04/23 07:25:23;;;;;;;16.27;9.15;;;;;;;14.21;62.14;99496.59;5428292;32;34640;-82
2022/04/23 07:28:25;;;;;;;14.07;8.47;;;;;;;13.14;65.25;99499.22;5414034;32;34024;-65
2022/04/23 07:31:29;;;;;;;20.30;9.67;;;;;;;14.80;60.43;99489.84;5429668;32;34378;-80
2022/04/23 07:37:52;;;;;;;15.67;9.87;;;;;;;14.16;60.96;99490.78;5429021;32;35016;-65
2022/04/23 07:40:54;;;;;;;11.90;8.40;;;;;;;14.87;59.80;99484.97;5422896;32;34238;-76
2022/04/23 07:43:56;;;;;;;13.53;7.87;;;;;;;15.51;56.92;99482.09;5416458;32;34772;-65
2022/04/23 07:46:58;;;;;;;13.53;8.50;;;;;;;15.67;55.50;99491.50;5420469;32;33646;-65
2022/04/23 07:50:01;;;;;;;13.13;8.82;;;;;;;16.22;54.64;99495.25;5408053;32;34225;-66
2022/04/23 07:53:04;;;;;;;12.43;8.25;;;;;;;15.73;55.89;99505.25;5431129;32;34751;-66
2022/04/23 07:56:07;;;;;;;15.10;8.57;;;;;;;15.88;54.85;99504.94;5415105;32;44548;-66
2022/04/23 07:59:09;;;;;;;14.03;9.07;;;;;;;14.72;58.76;99513.34;5425402;32;34200;-80
2022/04/23 08:02:11;;;;;;;13.27;7.70;;;;;;;14.35;61.02;99507.06;5418760;32;35580;-74
2022/04/23 08:05:14;;;;;;;16.25;9.27;;;;;;;13.95;61.34;99517.69;5418029;32;34287;-79
2022/04/23 08:08:21;;;;;;;18.93;12.23;;;;;;;13.23;64.54;99518.91;5432908;32;34992;-66
2022/04/23 08:11:23;;;;;;;13.83;9.13;;;;;;;13.90;63.33;99525.06;5416915;32;34825;-66
2022/04/23 08:14:25;;;;;;;13.80;9.70;;;;;;;13.51;64.29;99531.19;5428955;32;35907;-67
2022/04/23 08:17:27;;;;;;;14.33;8.60;;;;;;;12.95;65.84;99541.72;5415675;32;34037;-65
2022/04/23 08:20:32;;;;;;;14.17;8.37;;;;;;;13.70;63.12;99530.84;5423390;32;35400;-66
2022/04/23 08:23:34;;;;;;;15.10;8.63;;;;;;;13.64;63.70;99537.34;5425413;32;34611;-79
2022/04/23 08:26:37;;;;;;;15.63;8.70;;;;;;;15.15;59.20;99527.03;5409871;32;44559;-79
2022/04/23 08:33:03;;;;;;;12.47;7.83;;;;;;;14.91;58.60;99518.19;5416549;32;34149;-80
2022/04/23 08:36:07;;;;;;;13.37;7.80;;;;;;;15.76;55.54;99524.38;5425807;32;44515;-81
2022/04/23 08:39:09;;;;;;;14.10;8.40;;;;;;;15.51;56.31;99530.59;5416372;32;32752;-66
2022/04/23 08:42:11;;;;;;;14.35;8.27;;;;;;;16.23;53.83;99538.56;5414388;32;34381;-79
2022/04/23 08:45:14;;;;;;;15.10;8.52;;;;;;;16.49;52.84;99542.72;5431634;32;34786;-80
2022/04/23 08:48:17;;;;;;;14.57;7.50;;;;;;;15.23;55.89;99538.88;5398024;32;34878;-66
2022/04/23 08:51:22;;;;;;;12.90;8.20;;;;;;;15.44;55.27;99538.16;5429763;32;35768;-67
2022/04/23 08:54:25;;;;;;;14.30;8.10;;;;;;;14.96;56.95;99536.41;5416933;32;35000;-75
2022/04/23 08:57:28;;;;;;;11.63;7.68;;;;;;;15.81;55.26;99530.19;5425428;32;34096;-65
2022/04/23 09:00:31;;;;;;;11.43;7.33;;;;;;;17.02;51.01;99527.09;5420275;32;35542;-79
2022/04/23 09:03:33;;;;;;;11.57;7.73;;;;;;;17.33;49.94;99536.09;5409061;32;35632;-78
2022/04/23 09:06:46;;;;;;;13.77;8.13;;;;;;;15.09;55.51;99542.50;5429944;32;44358;-66
2022/04/23 09:09:58;;;;;;;13.02;8.32;;;;;;;14.54;58.90;99541.91;5403920;32;34533;-67
2022/04/23 09:13:01;;;;;;;11.80;7.37;;;;;;;15.33;55.83;99539.91;5431567;32;32134;-67
2022/04/23 09:26:22;;;;;;;12.20;8.00;;;;;;;15.93;53.47;99562.91;5414459;32;35248;-79
2022/04/23 09:29:24;;;;;;;12.43;8.43;;;;;;;16.21;52.86;99559.84;5417081;32;34133;-79
2022/04/23 09:32:27;;;;;;;;;;;;;;;16.81;52.24;99575.69;5423586;32;33530;-79
2022/04/23 09:35:29;;;;;;;11.60;7.20;;;;;;;17.93;48.71;99571.12;5417216;32;34866;-78
2022/04/23 09:38:31;;;;;;;12.13;8.23;;;;;;;17.31;49.52;99571.69;5433320;32;34125;-67
2022/04/23 09:41:34;;;;;;;12.40;7.95;;;;;;;15.49;53.72;99574.91;5411320;32;34194;-80
2022/04/23 09:44:36;;;;;;;13.45;7.15;;;;;;;15.74;53.87;99576.66;5429243;32;44382;-78
2022/04/23 09:47:42;;;;;;;11.43;7.82;;;;;;;16.80;51.15;99577.50;5401048;32;34655;-80
2022/04/23 09:50:47;;;;;;;14.60;7.83;;;;;;;15.67;54.37;99575.41;5413522;32;35570;-66
2022/04/23 09:53:53;;;;;;;11.70;7.77;;;;;;;16.33;53.21;99575.81;5431227;32;35259;-66
2022/04/23 09:56:56;;;;;;;12.20;7.67;;;;;;;16.72;50.82;99569.28;5405929;32;34928;-65
2022/04/23 09:59:59;;;;;;;12.25;7.62;;;;;;;17.13;50.78;99568.72;5430410;32;34705;-79
2022/04/23 10:03:03;;;;;;;12.73;7.40;;;;;;;18.13;47.60;99564.16;5414103;32;32625;-67
2022/04/23 10:06:06;;;;;;;12.40;7.67;;;;;;;17.64;48.93;99572.59;5424415;32;44349;-80
2022/04/23 10:09:08;;;;;;;10.32;6.50;;;;;;;17.19;49.48;99581.47;5415419;32;34105;-80
2022/04/23 10:12:17;;;;;;;13.62;6.95;;;;;;;16.40;50.57;99585.81;5414231;32;34895;-81
2022/04/23 10:15:20;;;;;;;12.97;7.17;;;;;;;17.35;47.05;99582.94;5428880;32;34630;-66
2022/04/23 10:18:23;;;;;;;14.07;8.45;;;;;;;17.16;48.36;99584.41;5411742;32;34925;-80
2022/04/23 10:21:30;;;;;;;;;;;;;;;17.44;47.27;99582.19;5431693;32;35123;-80
2022/04/23 10:24:57;;;;;;;11.53;7.37;;;;;;;18.09;45.63;99587.47;5412956;32;35272;-79
2022/04/23 10:28:00;;;;;;;12.70;8.07;;;;;;;17.29;47.14;99595.72;5401357;32;34687;-66
2022/04/23 10:31:15;;;;;;;12.07;7.45;;;;;;;18.13;46.65;99585.41;5431796;32;34677;-79
2022/04/23 10:34:33;;;;;;;12.47;7.60;;;;;;;19.21;43.48;99591.31;5417401;32;36235;-77
2022/04/23 10:37:42;;;;;;;13.87;7.63;;;;;;;18.25;45.12;99591.53;5431132;32;45584;-78
2022/04/23 10:40:44;;;;;;;12.37;7.47;;;;;;;17.96;46.07;99588.63;5417366;32;35571;-67
2022/04/23 10:43:52;;;;;;;10.73;7.25;;;;;;;17.54;46.27;99585.81;5418871;32;35480;-80
2022/04/23 10:46:58;;;;;;;11.53;7.73;;;;;;;18.45;43.31;99576.56;5422819;32;36019;-80
2022/04/23 10:50:18;;;;;;;12.07;7.73;;;;;;;18.36;44.75;99575.53;5404304;32;34752;-78
2022/04/23 10:53:27;;;;;;;12.23;7.80;;;;;;;17.95;45.03;99578.97;5433229;32;35337;-80
2022/04/23 10:56:34;;;;;;;11.93;7.87;;;;;;;17.72;45.91;99579.03;5416157;32;35690;-67
2022/04/23 10:59:38;;;;;;;12.13;7.60;;;;;;;18.82;43.33;99588.47;5422198;32;44978;-79
2022/04/23 11:02:41;;;;;;;12.60;7.93;;;;;;;18.12;44.33;99591.72;5431494;32;34824;-75
2022/04/23 11:12:59;;;;;;;12.27;8.40;;;;;;;16.78;48.22;99606.81;5392586;32;36418;-67
2022/04/23 11:16:11;;;;;;;16.20;9.40;;;;;;;18.29;44.94;99599.13;5414092;32;35415;-80
2022/04/23 11:19:14;;;;;;;13.33;8.57;;;;;;;16.39;50.27;99612.47;5431187;32;47735;-77
2022/04/23 11:22:16;;;;;;;12.90;8.20;;;;;;;16.00;52.17;99608.34;5410964;32;34116;-80
2022/04/23 11:25:19;;;;;;;11.60;7.37;;;;;;;15.63;51.82;99605.72;5430864;32;35326;-65
2022/04/23 11:28:22;;;;;;;11.90;7.25;;;;;;;17.00;48.26;99600.69;5413982;32;34848;-75
2022/04/23 11:31:25;;;;;;;14.63;7.53;;;;;;;16.98;47.87;99609.72;5422403;32;35744;-65
2022/04/23 11:34:27;;;;;;;13.70;8.25;;;;;;;15.54;51.83;99615.16;5428978;32;35977;-66
2022/04/23 11:37:37;;;;;;;11.60;6.97;;;;;;;15.79;51.03;99616.06;5417143;32;34581;-67
2022/04/23 11:40:39;;;;;;;14.50;7.50;;;;;;;15.51;51.47;99619.81;5431864;32;44231;-78
2022/04/23 11:43:41;;;;;;;11.17;6.97;;;;;;;14.74;52.63;99624.31;5418161;32;35015;-77
2022/04/23 11:46:45;;;;;;;16.90;9.67;;;;;;;14.74;52.72;99625.16;5423713;32;34612;-79
2022/04/23 11:49:48;;;;;;;17.93;8.03;;;;;;;15.71;50.29;99619.25;5406525;32;33076;-65
2022/04/23 11:53:01;;;;;;;11.25;6.80;;;;;;;15.59;50.72;99625.41;5416581;32;34885;-77
2022/04/23 11:56:03;;;;;;;13.60;7.43;;;;;;;15.68;50.91;99619.47;5432733;32;34706;-78
2022/04/23 11:59:09;;;;;;;12.73;7.80;;;;;;;15.44;52.08;99622.88;5416119;32;46068;-78
2022/04/23 12:02:18;;;;;;;13.13;7.67;;;;;;;15.75;51.03;99627.84;5433843;32;35027;-65
2022/04/23 12:05:39;;;;;;;11.37;7.43;;;;;;;15.31;51.59;99635.31;5417631;32;35610;-79
2022/04/23 12:08:42;;;;;;;12.17;7.50;;;;;;;16.66;48.34;99628.94;5414493;32;44435;-78
2022/04/23 12:11:57;;;;;;;13.07;8.65;;;;;;;16.05;50.82;99630.06;5433748;32;34245;-79
2022/04/23 12:15:06;;;;;;;14.00;9.20;;;;;;;15.55;51.92;99621.28;5420471;32;34281;-66
2022/04/23 12:18:17;;;;;;;12.73;7.60;;;;;;;16.86;48.79;99621.28;5431626;32;44547;-78
2022/04/23 12:21:19;;;;;;;10.13;6.73;;;;;;;16.92;48.38;99616.34;5416724;32;34740;-64
2022/04/23 12:24:33;;;;;;;12.23;7.40;;;;;;;17.10;47.65;99618.56;5421881;32;35083;-77
2022/04/23 12:27:54;;;;;;;11.70;6.80;;;;;;;16.95;47.73;99613.47;5427402;32;33462;-66
2022/04/23 12:41:13;;;;;;;10.82;7.00;;;;;;;25.22;30.22;99580.13;5414689;32;44412;-77
2022/04/23 12:44:23;;;;;;;11.12;7.53;;;;;;;25.69;29.08;99568.47;5431010;32;34801;-78
2022/04/23 12:47:29;;;;;;;10.73;7.70;;;;;;;26.90;26.85;99571.25;5388442;32;34715;-66
2022/04/23 12:50:31;;;;;;;10.90;7.72;;;;;;;22.02;34.27;99578.34;5420662;32;35112;-67
2022/04/23 12:53:36;;;;;;;13.02;8.25;;;;;;;21.09;36.17;99587.44;5422158;32;35333;-67
2022/04/23 12:56:38;;;;;;;12.48;7.97;;;;;;;19.44;39.29;99591.94;5416834;32;44506;-65
2022/04/23 12:59:40;;;;;;;12.25;8.68;;;;;;;19.92;39.19;99592.06;5432775;32;34145;-66
2022/04/23 13:02:45;;;;;;;10.20;7.05;;;;;;;18.14;42.67;99589.75;5416785;32;35016;-80
2022/04/23 13:05:47;;;;;;;14.23;8.93;;;;;;;17.86;43.98;99583.22;5418840;32;35494;-76
2022/04/23 13:08:55;;;;;;;13.25;9.02;;;;;;;19.45;41.28;99581.16;5418101;32;34161;-67
2022/04/23 13:11:58;;;;;;;14.10;8.07;;;;;;;19.74;40.33;99580.41;5424195;32;35143;-75
2022/04/23 13:15:01;;;;;;;11.32;7.50;;;;;;;19.17;40.25;99577.41;5423454;32;34457;-80
2022/04/23 13:18:04;;;;;;;13.57;8.00;;;;;;;19.62;39.01;99586.81;5411329;32;34854;-80
2022/04/23 13:21:07;;;;;;;12.97;8.60;;;;;;;19.31;40.56;99584.16;5430326;32;44924;-66
2022/04/23 13:24:10;;;;;;;13.85;9.18;;;;;;;20.37;39.03;99588.00;5409973;32;35631;-67
2022/04/23 13:27:13;;;;;;;12.90;8.52;;;;;;;19.15;41.37;99582.03;5421126;32;173526;-80
2022/04/23 13:30:17;;;;;;;14.70;9.10;;;;;;;19.39;41.08;99580.84;5412213;32;34860;-80
2022/04/23 13:33:19;;;;;;;14.37;9.43;;;;;;;19.14;41.40;99587.50;5416919;32;35036;-66
2022/04/23 13:36:22;;;;;;;13.73;9.75;;;;;;;19.41;40.73;99581.56;5415147;32;34819;-67
2022/04/23 13:39:24;;;;;;;13.70;9.38;;;;;;;20.12;38.93;99592.94;5414392;32;34124;-79
2022/04/23 13:42:27;;;;;;;12.02;8.65;;;;;;;19.20;40.60;99589.63;5431978;32;34461;-79
2022/04/23 13:45:30;;;;;;;;;;;;;;;19.84;39.40;99589.25;5414204;32;34273;-79
2022/04/23 13:48:32;;;;;;;15.60;8.37;;;;;;;19.58;39.82;99596.94;5407364;32;34699;-67
2022/04/23 13:51:34;;;;;;;13.15;8.68;;;;;;;19.05;41.44;99602.44;5415041;32;34724;-68
2022/04/23 13:54:37;;;;;;;15.40;10.32;;;;;;;19.39;40.58;99600.34;5388438;32;44250;-79
2022/04/23 13:57:39;;;;;;;15.10;11.02;;;;;;;18.77;41.53;99595.16;5427129;32;35273;-67
2022/04/23 14:00:41;;;;;;;13.88;9.82;;;;;;;19.12;41.47;99595.59;5415583;32;35054;-79
2022/04/23 14:10:25;;;;;;;15.40;10.80;;;;;;;18.86;42.49;99581.87;5416905;32;34781;-65
2022/04/23 14:13:27;;;;;;;15.32;10.40;;;;;;;19.01;42.32;99589.53;5423587;32;35349;-65
2022/04/23 14:16:29;;;;;;;19.77;11.77;;;;;;;19.27;41.98;99585.44;5415020;32;34367;-79
2022/04/23 14:19:32;;;;;;;14.23;8.87;;;;;;;19.81;41.18;99586.03;5431443;32;34520;-67
2022/04/23 14:22:35;;;;;;;14.90;9.27;;;;;;;19.43;41.94;99598.25;5408770;32;43656;-81
2022/04/23 14:25:40;;;;;;;14.05;9.13;;;;;;;18.83;42.69;99599.94;5425558;32;34274;-65
2022/04/23 14:28:42;;;;;;;14.07;8.93;;;;;;;17.95;45.49;99600.22;5409484;32;34836;-76
2022/04/23 14:31:44;;;;;;;16.13;9.87;;;;;;;18.21;44.47;99598.06;5415037;32;36827;-79
2022/04/23 14:34:48;;;;;;;17.12;9.27;;;;;;;18.13;45.24;99596.91;5428704;32;34501;-65
2022/04/23 14:37:51;;;;;;;17.17;10.83;;;;;;;17.53;46.38;99597.41;5412323;32;35160;-76
2022/04/23 14:40:53;;;;;;;;;;;;;;;17.67;47.16;99597.13;5431357;32;34730;-79
2022/04/23 14:43:56;;;;;;;15.27;9.23;;;;;;;18.15;46.34;99599.41;5414549;32;34912;-78
2022/04/23 14:47:00;;;;;;;15.82;10.43;;;;;;;18.64;44.81;99603.28;5417541;32;34755;-65
2022/04/23 14:50:07;;;;;;;21.97;10.00;;;;;;;17.95;46.46;99611.69;5407007;32;45328;-78
2022/04/23 14:53:12;;;;;;;17.37;9.65;;;;;;;17.68;47.88;99612.09;5413550;32;34682;-66